sensor_id;sensor_type;location;lat;lon;timestamp;pressure;altitude;pressure_sealevel;temperature;humidity
76122;BME280;70471;53.200;6.080;2024-01-30T00:03:20;102565.28;;;20.48;30.55
76122;BME280;70471;53.200;6.080;2024-01-30T00:08:12;102565.50;;;20.41;30.71
76122;BME280;70471;53.200;6.080;2024-01-30T00:13:06;102553.81;;;20.34;30.94
76122;BME280;70471;53.200;6.080;2024-01-30T00:17:57;102552.75;;;20.40;30.58
76122;BME280;70471;53.200;6.080;2024-01-30T00:22:50;102526.03;;;20.29;30.89
76122;BME280;70471;53.200;6.080;2024-01-30T00:27:41;102533.34;;;20.35;30.75
76122;BME280;70471;53.200;6.080;2024-01-30T00:32:35;102533.34;;;20.35;30.48
76122;BME280;70471;53.200;6.080;2024-01-30T00:37:27;102544.91;;;20.32;31.25
76122;BME280;70471;53.200;6.080;2024-01-30T00:42:19;102533.78;;;20.27;30.92
76122;BME280;70471;53.200;6.080;2024-01-30T00:47:11;102515.97;;;20.17;30.64
76122;BME280;70471;53.200;6.080;2024-01-30T00:52:05;102546.84;;;20.31;30.89
76122;BME280;70471;53.200;6.080;2024-01-30T00:56:57;102541.00;;;20.28;31.28
76122;BME280;70471;53.200;6.080;2024-01-30T01:01:50;102535.47;;;20.28;31.26
76122;BME280;70471;53.200;6.080;2024-01-30T01:06:41;102541.31;;;20.31;31.09
76122;BME280;70471;53.200;6.080;2024-01-30T01:11:35;102518.75;;;20.17;30.94
76122;BME280;70471;53.200;6.080;2024-01-30T01:16:28;102531.84;;;20.27;31.30
76122;BME280;70471;53.200;6.080;2024-01-30T01:21:20;102530.75;;;20.28;30.99
76122;BME280;70471;53.200;6.080;2024-01-30T01:26:13;102514.38;;;20.22;30.82
76122;BME280;70471;53.200;6.080;2024-01-30T01:31:07;102531.28;;;20.25;30.82
76122;BME280;70471;53.200;6.080;2024-01-30T01:35:58;102523.75;;;20.20;30.95
76122;BME280;70471;53.200;6.080;2024-01-30T01:40:52;102507.19;;;20.26;31.35
76122;BME280;70471;53.200;6.080;2024-01-30T01:45:45;102511.06;;;20.25;30.74
76122;BME280;70471;53.200;6.080;2024-01-30T01:50:39;102508.56;;;20.23;31.05
76122;BME280;70471;53.200;6.080;2024-01-30T01:55:31;102491.66;;;20.19;31.15
76122;BME280;70471;53.200;6.080;2024-01-30T02:00:24;102492.78;;;20.24;30.88
76122;BME280;70471;53.200;6.080;2024-01-30T02:05:16;102496.03;;;20.15;30.84
76122;BME280;70471;53.200;6.080;2024-01-30T02:10:10;102482.25;;;20.20;30.95
76122;BME280;70471;53.200;6.080;2024-01-30T02:15:02;102494.47;;;20.25;30.97
76122;BME280;70471;53.200;6.080;2024-01-30T02:19:55;102493.31;;;20.20;30.93
76122;BME280;70471;53.200;6.080;2024-01-30T02:24:49;102473.16;;;20.25;31.35
76122;BME280;70471;53.200;6.080;2024-01-30T02:29:41;102468.69;;;20.24;31.23
76122;BME280;70471;53.200;6.080;2024-01-30T02:34:33;102467.53;;;20.15;31.02
76122;BME280;70471;53.200;6.080;2024-01-30T02:39:25;102475.63;;;20.22;30.97
76122;BME280;70471;53.200;6.080;2024-01-30T02:44:18;102467.63;;;20.25;31.26
76122;BME280;70471;53.200;6.080;2024-01-30T02:49:10;102467.00;;;20.18;31.07
76122;BME280;70471;53.200;6.080;2024-01-30T02:54:02;102463.69;;;20.21;31.31
76122;BME280;70471;53.200;6.080;2024-01-30T02:58:54;102439.06;;;20.19;31.25
76122;BME280;70471;53.200;6.080;2024-01-30T03:03:47;102431.56;;;20.15;31.03
76122;BME280;70471;53.200;6.080;2024-01-30T03:08:39;102442.97;;;20.24;30.75
76122;BME280;70471;53.200;6.080;2024-01-30T03:13:31;102428.34;;;20.28;30.99
76122;BME280;70471;53.200;6.080;2024-01-30T03:18:23;102416.13;;;20.24;30.98
76122;BME280;70471;53.200;6.080;2024-01-30T03:23:16;102403.09;;;20.19;30.97
76122;BME280;70471;53.200;6.080;2024-01-30T03:28:08;102409.22;;;20.27;31.40
76122;BME280;70471;53.200;6.080;2024-01-30T03:33:00;102404.47;;;20.22;31.26
76122;BME280;70471;53.200;6.080;2024-01-30T03:37:52;102413.16;;;20.31;31.32
76122;BME280;70471;53.200;6.080;2024-01-30T03:42:45;102393.16;;;20.24;30.96
76122;BME280;70471;53.200;6.080;2024-01-30T03:47:37;102393.16;;;20.24;31.31
76122;BME280;70471;53.200;6.080;2024-01-30T03:52:29;102376.50;;;20.18;31.28
76122;BME280;70471;53.200;6.080;2024-01-30T03:57:21;102388.16;;;20.26;31.20
76122;BME280;70471;53.200;6.080;2024-01-30T04:02:14;102384.53;;;20.15;31.21
76122;BME280;70471;53.200;6.080;2024-01-30T04:07:06;102376.78;;;20.17;30.93
76122;BME280;70471;53.200;6.080;2024-01-30T04:11:58;102394.50;;;20.21;30.97
76122;BME280;70471;53.200;6.080;2024-01-30T04:16:50;102370.09;;;20.13;31.23
76122;BME280;70471;53.200;6.080;2024-01-30T04:21:43;102370.97;;;20.18;31.00
76122;BME280;70471;53.200;6.080;2024-01-30T04:26:35;102372.06;;;20.17;31.19
76122;BME280;70471;53.200;6.080;2024-01-30T04:31:28;102371.53;;;20.20;31.46
76122;BME280;70471;53.200;6.080;2024-01-30T04:36:20;102337.22;;;20.16;31.01
76122;BME280;70471;53.200;6.080;2024-01-30T04:41:13;102342.75;;;20.16;31.43
76122;BME280;70471;53.200;6.080;2024-01-30T04:46:05;102363.75;;;20.17;31.25
76122;BME280;70471;53.200;6.080;2024-01-30T04:50:57;102357.44;;;20.22;31.10
76122;BME280;70471;53.200;6.080;2024-01-30T04:55:53;102350.22;;;20.21;31.15
76122;BME280;70471;53.200;6.080;2024-01-30T05:00:46;102351.63;;;20.24;30.89
76122;BME280;70471;53.200;6.080;2024-01-30T05:05:42;102326.72;;;20.24;30.93
76122;BME280;70471;53.200;6.080;2024-01-30T05:10:34;102358.00;;;20.24;31.30
76122;BME280;70471;53.200;6.080;2024-01-30T05:15:26;102363.84;;;20.28;31.05
76122;BME280;70471;53.200;6.080;2024-01-30T05:20:19;102365.47;;;20.24;31.36
76122;BME280;70471;53.200;6.080;2024-01-30T05:25:12;102354.94;;;20.20;31.43
76122;BME280;70471;53.200;6.080;2024-01-30T05:30:06;102341.72;;;20.28;31.38
76122;BME280;70471;53.200;6.080;2024-01-30T05:34:58;102353.84;;;20.22;31.22
76122;BME280;70471;53.200;6.080;2024-01-30T05:39:51;102351.34;;;20.20;31.55
76122;BME280;70471;53.200;6.080;2024-01-30T05:44:44;102346.66;;;20.26;31.18
76122;BME280;70471;53.200;6.080;2024-01-30T05:49:35;102332.78;;;20.20;31.59
76122;BME280;70471;53.200;6.080;2024-01-30T05:54:28;102317.78;;;20.11;31.46
76122;BME280;70471;53.200;6.080;2024-01-30T05:59:21;102334.22;;;20.28;30.94
76122;BME280;70471;53.200;6.080;2024-01-30T06:04:13;102327.53;;;20.24;30.92
76122;BME280;70471;53.200;6.080;2024-01-30T06:09:05;102333.34;;;20.23;31.00
76122;BME280;70471;53.200;6.080;2024-01-30T06:13:58;102320.38;;;20.23;31.06
76122;BME280;70471;53.200;6.080;2024-01-30T06:18:52;102318.94;;;20.15;31.13
76122;BME280;70471;53.200;6.080;2024-01-30T06:23:44;102325.03;;;20.23;31.54
76122;BME280;70471;53.200;6.080;2024-01-30T06:28:35;102323.41;;;20.22;30.96
76122;BME280;70471;53.200;6.080;2024-01-30T06:33:27;102334.75;;;20.25;31.54
76122;BME280;70471;53.200;6.080;2024-01-30T06:38:21;102326.47;;;20.30;31.11
76122;BME280;70471;53.200;6.080;2024-01-30T06:43:13;102323.69;;;20.25;31.13
76122;BME280;70471;53.200;6.080;2024-01-30T06:48:06;102307.56;;;20.12;31.37
76122;BME280;70471;53.200;6.080;2024-01-30T06:52:58;102311.00;;;20.29;31.02
76122;BME280;70471;53.200;6.080;2024-01-30T06:57:51;102302.31;;;20.15;31.23
76122;BME280;70471;53.200;6.080;2024-01-30T07:02:43;102297.94;;;20.19;31.36
76122;BME280;70471;53.200;6.080;2024-01-30T07:07:35;102294.88;;;20.21;31.45
76122;BME280;70471;53.200;6.080;2024-01-30T07:12:27;102310.94;;;20.24;31.56
76122;BME280;70471;53.200;6.080;2024-01-30T07:17:21;102325.66;;;20.30;31.61
76122;BME280;70471;53.200;6.080;2024-01-30T07:22:12;102309.06;;;20.30;31.11
76122;BME280;70471;53.200;6.080;2024-01-30T07:27:04;102297.94;;;20.19;31.26
76122;BME280;70471;53.200;6.080;2024-01-30T07:31:56;102312.31;;;20.16;31.34
76122;BME280;70471;53.200;6.080;2024-01-30T07:36:50;102335.69;;;20.36;32.08
76122;BME280;70471;53.200;6.080;2024-01-30T07:41:42;102340.53;;;20.56;31.57
76122;BME280;70471;53.200;6.080;2024-01-30T07:46:34;102338.69;;;20.77;31.78
76122;BME280;70471;53.200;6.080;2024-01-30T07:51:26;102323.78;;;20.94;31.40
76122;BME280;70471;53.200;6.080;2024-01-30T07:56:20;102321.09;;;21.09;31.40
76122;BME280;70471;53.200;6.080;2024-01-30T08:01:12;102328.06;;;21.27;31.33
76122;BME280;70471;53.200;6.080;2024-01-30T08:06:04;102340.00;;;21.38;31.10
76122;BME280;70471;53.200;6.080;2024-01-30T08:10:57;102341.97;;;21.48;31.09
76122;BME280;70471;53.200;6.080;2024-01-30T08:15:50;102347.25;;;21.59;30.77
76122;BME280;70471;53.200;6.080;2024-01-30T08:20:42;102367.81;;;21.69;30.85
76122;BME280;70471;53.200;6.080;2024-01-30T08:25:34;102371.41;;;21.74;30.37
76122;BME280;70471;53.200;6.080;2024-01-30T08:30:26;102376.41;;;21.77;30.58
76122;BME280;70471;53.200;6.080;2024-01-30T08:35:20;102372.28;;;21.85;30.45
76122;BME280;70471;53.200;6.080;2024-01-30T08:40:12;102370.06;;;21.82;30.65
76122;BME280;70471;53.200;6.080;2024-01-30T08:45:05;102379.44;;;21.76;30.46
76122;BME280;70471;53.200;6.080;2024-01-30T08:49:57;102374.47;;;21.78;30.73
76122;BME280;70471;53.200;6.080;2024-01-30T08:54:50;102375.59;;;21.92;30.72
76122;BME280;70471;53.200;6.080;2024-01-30T08:59:42;102371.16;;;22.02;30.27
76122;BME280;70471;53.200;6.080;2024-01-30T09:04:36;102370.03;;;22.08;30.30
76122;BME280;70471;53.200;6.080;2024-01-30T09:09:27;102380.03;;;22.09;30.49
76122;BME280;70471;53.200;6.080;2024-01-30T09:14:21;102380.03;;;21.98;30.74
76122;BME280;70471;53.200;6.080;2024-01-30T09:19:12;102381.44;;;22.01;30.47
76122;BME280;70471;53.200;6.080;2024-01-30T09:24:04;102381.72;;;21.94;30.80
76122;BME280;70471;53.200;6.080;2024-01-30T09:28:56;102385.06;;;22.07;30.45
76122;BME280;70471;53.200;6.080;2024-01-30T09:33:49;102373.94;;;22.02;30.59
76122;BME280;70471;53.200;6.080;2024-01-30T09:38:41;102377.28;;;22.04;30.71
76122;BME280;70471;53.200;6.080;2024-01-30T09:43:34;102385.88;;;22.02;30.96
76122;BME280;70471;53.200;6.080;2024-01-30T09:48:26;102390.59;;;21.96;30.59
76122;BME280;70471;53.200;6.080;2024-01-30T09:53:20;102373.41;;;21.94;30.86
76122;BME280;70471;53.200;6.080;2024-01-30T09:58:13;102381.41;;;21.91;30.72
76122;BME280;70471;53.200;6.080;2024-01-30T10:03:05;102389.75;;;21.80;31.01
76122;BME280;70471;53.200;6.080;2024-01-30T10:07:57;102398.88;;;21.76;31.23
76122;BME280;70471;53.200;6.080;2024-01-30T10:12:51;102393.88;;;21.68;31.43
76122;BME280;70471;53.200;6.080;2024-01-30T10:17:44;102394.97;;;21.61;31.72
76122;BME280;70471;53.200;6.080;2024-01-30T10:22:36;102409.38;;;21.58;31.59
76122;BME280;70471;53.200;6.080;2024-01-30T10:27:28;102396.59;;;21.42;31.28
76122;BME280;70471;53.200;6.080;2024-01-30T10:32:21;102400.75;;;21.39;31.67
76122;BME280;70471;53.200;6.080;2024-01-30T10:37:13;102409.31;;;21.38;31.56
76122;BME280;70471;53.200;6.080;2024-01-30T10:42:11;102411.56;;;21.36;31.81
76122;BME280;70471;53.200;6.080;2024-01-30T10:47:06;102424.00;;;21.38;32.05
76122;BME280;70471;53.200;6.080;2024-01-30T10:52:03;102419.28;;;21.34;32.09
76122;BME280;70471;53.200;6.080;2024-01-30T10:56:57;102420.13;;;21.29;31.69
76122;BME280;70471;53.200;6.080;2024-01-30T11:01:54;102437.59;;;21.30;31.76
76122;BME280;70471;53.200;6.080;2024-01-30T11:06:49;102437.03;;;21.33;31.91
76122;BME280;70471;53.200;6.080;2024-01-30T11:11:56;102429.81;;;21.26;32.24
76122;BME280;70471;53.200;6.080;2024-01-30T11:16:50;102438.13;;;21.32;31.86
76122;BME280;70471;53.200;6.080;2024-01-30T11:21:42;102421.50;;;21.26;31.99
76122;BME280;70471;53.200;6.080;2024-01-30T11:26:34;102432.31;;;21.33;32.11
76122;BME280;70471;53.200;6.080;2024-01-30T11:31:28;102431.50;;;21.38;31.75
76122;BME280;70471;53.200;6.080;2024-01-30T11:36:25;102425.97;;;21.33;32.12
76122;BME280;70471;53.200;6.080;2024-01-30T11:41:17;102420.69;;;21.36;31.91
76122;BME280;70471;53.200;6.080;2024-01-30T11:46:09;102435.97;;;21.39;32.02
76122;BME280;70471;53.200;6.080;2024-01-30T11:51:02;102437.09;;;21.48;32.22
76122;BME280;70471;53.200;6.080;2024-01-30T11:55:54;102425.44;;;21.46;31.81
76122;BME280;70471;53.200;6.080;2024-01-30T12:00:53;102427.38;;;21.40;32.50
76122;BME280;70471;53.200;6.080;2024-01-30T12:05:44;102434.84;;;21.40;32.62
76122;BME280;70471;53.200;6.080;2024-01-30T12:10:37;102418.25;;;21.45;32.23
76122;BME280;70471;53.200;6.080;2024-01-30T12:15:28;102423.47;;;21.41;32.28
76122;BME280;70471;53.200;6.080;2024-01-30T12:20:20;102415.44;;;21.40;32.60
76122;BME280;70471;53.200;6.080;2024-01-30T12:25:15;102415.97;;;21.37;33.07
76122;BME280;70471;53.200;6.080;2024-01-30T12:30:09;102422.38;;;21.37;32.48
76122;BME280;70471;53.200;6.080;2024-01-30T12:35:02;102420.41;;;21.38;32.89
76122;BME280;70471;53.200;6.080;2024-01-30T12:39:53;102436.50;;;21.36;32.67
76122;BME280;70471;53.200;6.080;2024-01-30T12:44:45;102422.06;;;21.34;32.38
76122;BME280;70471;53.200;6.080;2024-01-30T12:49:38;102419.59;;;21.37;32.18
76122;BME280;70471;53.200;6.080;2024-01-30T12:54:30;102421.78;;;21.35;32.62
76122;BME280;70471;53.200;6.080;2024-01-30T12:59:22;102422.63;;;21.31;32.27
76122;BME280;70471;53.200;6.080;2024-01-30T13:04:13;102422.59;;;21.25;32.48
76122;BME280;70471;53.200;6.080;2024-01-30T13:09:07;102418.66;;;21.16;32.42
76122;BME280;70471;53.200;6.080;2024-01-30T13:14:00;102425.50;;;20.98;33.34
76122;BME280;70471;53.200;6.080;2024-01-30T13:18:52;102415.13;;;20.78;32.91
76122;BME280;70471;53.200;6.080;2024-01-30T13:23:46;102413.13;;;20.68;33.41
76122;BME280;70471;53.200;6.080;2024-01-30T13:28:39;102424.47;;;20.62;33.31
76122;BME280;70471;53.200;6.080;2024-01-30T13:33:31;102431.44;;;20.69;33.30
76122;BME280;70471;53.200;6.080;2024-01-30T13:38:23;102432.53;;;20.68;33.40
76122;BME280;70471;53.200;6.080;2024-01-30T13:43:14;102424.47;;;20.67;33.85
76122;BME280;70471;53.200;6.080;2024-01-30T13:48:08;102420.88;;;20.66;33.84
76122;BME280;70471;53.200;6.080;2024-01-30T13:52:59;102421.97;;;20.65;34.32
76122;BME280;70471;53.200;6.080;2024-01-30T13:57:50;102421.16;;;20.65;34.61
76122;BME280;70471;53.200;6.080;2024-01-30T14:02:42;102419.53;;;20.69;34.48
76122;BME280;70471;53.200;6.080;2024-01-30T14:07:35;102421.50;;;20.73;34.37
76122;BME280;70471;53.200;6.080;2024-01-30T14:12:28;102429.81;;;20.73;34.27
76122;BME280;70471;53.200;6.080;2024-01-30T14:17:21;102443.16;;;20.82;34.31
76122;BME280;70471;53.200;6.080;2024-01-30T14:22:12;102437.28;;;20.78;33.68
76122;BME280;70471;53.200;6.080;2024-01-30T14:27:06;102418.34;;;20.60;33.69
76122;BME280;70471;53.200;6.080;2024-01-30T14:31:58;102446.19;;;20.80;34.24
76122;BME280;70471;53.200;6.080;2024-01-30T14:36:50;102446.16;;;20.75;33.87
76122;BME280;70471;53.200;6.080;2024-01-30T14:41:42;102458.88;;;20.76;33.71
76122;BME280;70471;53.200;6.080;2024-01-30T14:46:35;102449.47;;;20.72;33.98
76122;BME280;70471;53.200;6.080;2024-01-30T14:51:27;102449.75;;;20.76;34.12
76122;BME280;70471;53.200;6.080;2024-01-30T14:56:19;102460.00;;;20.75;33.90
76122;BME280;70471;53.200;6.080;2024-01-30T15:01:12;102460.88;;;20.86;34.09
76122;BME280;70471;53.200;6.080;2024-01-30T15:06:06;102479.72;;;20.84;33.64
76122;BME280;70471;53.200;6.080;2024-01-30T15:10:58;102491.41;;;20.91;33.95
76122;BME280;70471;53.200;6.080;2024-01-30T15:15:50;102487.75;;;20.85;33.47
76122;BME280;70471;53.200;6.080;2024-01-30T15:20:42;102492.78;;;20.88;33.55
76122;BME280;70471;53.200;6.080;2024-01-30T15:25:36;102505.84;;;20.98;33.31
76122;BME280;70471;53.200;6.080;2024-01-30T15:30:28;102503.06;;;20.93;33.37
76122;BME280;70471;53.200;6.080;2024-01-30T15:35:20;102505.53;;;20.89;33.85
76122;BME280;70471;53.200;6.080;2024-01-30T15:40:12;102533.56;;;20.98;33.56
76122;BME280;70471;53.200;6.080;2024-01-30T15:45:05;102554.72;;;21.09;33.32
76122;BME280;70471;53.200;6.080;2024-01-30T15:49:57;102550.22;;;21.03;33.35
76122;BME280;70471;53.200;6.080;2024-01-30T15:54:48;102559.72;;;21.13;33.23
76122;BME280;70471;53.200;6.080;2024-01-30T15:59:40;102568.84;;;21.08;33.48
76122;BME280;70471;53.200;6.080;2024-01-30T16:04:33;102567.25;;;21.17;33.26
76122;BME280;70471;53.200;6.080;2024-01-30T16:09:24;102576.63;;;21.11;33.07
76122;BME280;70471;53.200;6.080;2024-01-30T16:14:16;102585.03;;;21.21;33.50
76122;BME280;70471;53.200;6.080;2024-01-30T16:19:07;102586.91;;;21.16;32.93
76122;BME280;70471;53.200;6.080;2024-01-30T16:24:00;102590.88;;;21.25;32.79
76122;BME280;70471;53.200;6.080;2024-01-30T16:28:51;102601.66;;;21.21;33.35
76122;BME280;70471;53.200;6.080;2024-01-30T16:33:43;102609.47;;;21.30;32.74
76122;BME280;70471;53.200;6.080;2024-01-30T16:38:34;102619.41;;;21.25;33.24
76122;BME280;70471;53.200;6.080;2024-01-30T16:43:28;102623.06;;;21.31;32.96
76122;BME280;70471;53.200;6.080;2024-01-30T16:48:20;102645.25;;;21.31;32.91
76122;BME280;70471;53.200;6.080;2024-01-30T16:53:13;102650.28;;;21.39;32.82
76122;BME280;70471;53.200;6.080;2024-01-30T16:58:04;102668.56;;;21.35;32.92
76122;BME280;70471;53.200;6.080;2024-01-30T17:02:59;102674.72;;;21.42;33.32
76122;BME280;70471;53.200;6.080;2024-01-30T17:07:52;102668.81;;;21.34;33.34
76122;BME280;70471;53.200;6.080;2024-01-30T17:12:44;102695.03;;;21.48;33.63
76122;BME280;70471;53.200;6.080;2024-01-30T17:17:35;102703.63;;;21.52;34.26
76122;BME280;70471;53.200;6.080;2024-01-30T17:22:28;102705.00;;;21.49;34.32
76122;BME280;70471;53.200;6.080;2024-01-30T17:27:20;102712.78;;;21.52;34.22
76122;BME280;70471;53.200;6.080;2024-01-30T17:32:11;102731.63;;;21.50;34.21
76122;BME280;70471;53.200;6.080;2024-01-30T17:37:03;102744.94;;;21.48;34.25
76122;BME280;70471;53.200;6.080;2024-01-30T17:41:56;102749.63;;;21.48;34.25
76122;BME280;70471;53.200;6.080;2024-01-30T17:46:49;102766.50;;;21.41;34.00
76122;BME280;70471;53.200;6.080;2024-01-30T17:51:41;102788.72;;;21.46;34.03
76122;BME280;70471;53.200;6.080;2024-01-30T17:56:32;102782.59;;;21.44;33.89
76122;BME280;70471;53.200;6.080;2024-01-30T18:01:25;102781.44;;;21.40;33.65
76122;BME280;70471;53.200;6.080;2024-01-30T18:06:17;102799.13;;;21.34;33.89
76122;BME280;70471;53.200;6.080;2024-01-30T18:11:09;102817.50;;;21.40;34.04
76122;BME280;70471;53.200;6.080;2024-01-30T18:16:00;102830.22;;;21.36;33.70
76122;BME280;70471;53.200;6.080;2024-01-30T18:20:53;102834.06;;;21.30;33.55
76122;BME280;70471;53.200;6.080;2024-01-30T18:25:45;102853.69;;;21.23;33.73
76122;BME280;70471;53.200;6.080;2024-01-30T18:30:36;102842.06;;;21.26;33.72
76122;BME280;70471;53.200;6.080;2024-01-30T18:35:27;102866.16;;;21.25;33.75
76122;BME280;70471;53.200;6.080;2024-01-30T18:40:20;102876.13;;;21.21;33.57
76122;BME280;70471;53.200;6.080;2024-01-30T18:45:12;102881.31;;;21.18;33.81
76122;BME280;70471;53.200;6.080;2024-01-30T18:50:05;102881.13;;;21.24;33.78
76122;BME280;70471;53.200;6.080;2024-01-30T18:54:56;102888.34;;;21.25;34.15
76122;BME280;70471;53.200;6.080;2024-01-30T18:59:49;102901.69;;;21.28;34.61
76122;BME280;70471;53.200;6.080;2024-01-30T19:04:41;102910.59;;;21.31;34.32
76122;BME280;70471;53.200;6.080;2024-01-30T19:09:32;102920.84;;;21.30;34.43
76122;BME280;70471;53.200;6.080;2024-01-30T19:14:24;102926.16;;;21.37;34.42
76122;BME280;70471;53.200;6.080;2024-01-30T19:19:17;102938.38;;;21.36;34.72
76122;BME280;70471;53.200;6.080;2024-01-30T19:24:09;102943.47;;;21.44;34.08
76122;BME280;70471;53.200;6.080;2024-01-30T19:29:01;102951.78;;;21.44;34.60
76122;BME280;70471;53.200;6.080;2024-01-30T19:33:52;102963.97;;;21.43;34.10
76122;BME280;70471;53.200;6.080;2024-01-30T19:38:45;102980.44;;;21.50;34.43
76122;BME280;70471;53.200;6.080;2024-01-30T19:43:36;102978.44;;;21.45;34.06
76122;BME280;70471;53.200;6.080;2024-01-30T19:48:28;102989.31;;;21.52;34.08
76122;BME280;70471;53.200;6.080;2024-01-30T19:53:20;103004.00;;;21.52;34.01
76122;BME280;70471;53.200;6.080;2024-01-30T19:58:13;103017.88;;;21.52;34.21
76122;BME280;70471;53.200;6.080;2024-01-30T20:03:05;103024.84;;;21.55;34.12
76122;BME280;70471;53.200;6.080;2024-01-30T20:07:56;103026.19;;;21.52;34.23
76122;BME280;70471;53.200;6.080;2024-01-30T20:12:48;103046.28;;;21.59;34.24
76122;BME280;70471;53.200;6.080;2024-01-30T20:17:42;103052.34;;;21.56;34.46
76122;BME280;70471;53.200;6.080;2024-01-30T20:22:34;103062.56;;;21.56;34.14
76122;BME280;70471;53.200;6.080;2024-01-30T20:27:25;103077.63;;;21.60;34.17
76122;BME280;70471;53.200;6.080;2024-01-30T20:32:18;103087.88;;;21.59;34.55
76122;BME280;70471;53.200;6.080;2024-01-30T20:37:10;103083.41;;;21.58;34.80
76122;BME280;70471;53.200;6.080;2024-01-30T20:42:02;103095.94;;;21.61;34.71
76122;BME280;70471;53.200;6.080;2024-01-30T20:46:55;103099.56;;;21.61;35.06
76122;BME280;70471;53.200;6.080;2024-01-30T20:51:46;103098.38;;;21.57;34.92
76122;BME280;70471;53.200;6.080;2024-01-30T20:56:39;103113.94;;;21.58;34.72
76122;BME280;70471;53.200;6.080;2024-01-30T21:01:31;103120.81;;;21.56;34.54
76122;BME280;70471;53.200;6.080;2024-01-30T21:06:22;103120.00;;;21.55;34.68
76122;BME280;70471;53.200;6.080;2024-01-30T21:11:13;103118.31;;;21.54;34.21
76122;BME280;70471;53.200;6.080;2024-01-30T21:16:06;103121.63;;;21.51;34.44
76122;BME280;70471;53.200;6.080;2024-01-30T21:20:58;103136.56;;;21.50;34.30
76122;BME280;70471;53.200;6.080;2024-01-30T21:25:49;103146.25;;;21.48;34.07
76122;BME280;70471;53.200;6.080;2024-01-30T21:30:41;103155.69;;;21.47;34.36
76122;BME280;70471;53.200;6.080;2024-01-30T21:35:34;103161.47;;;21.45;34.46
76122;BME280;70471;53.200;6.080;2024-01-30T21:40:25;103165.34;;;21.44;33.96
76122;BME280;70471;53.200;6.080;2024-01-30T21:45:17;103164.50;;;21.43;34.47
76122;BME280;70471;53.200;6.080;2024-01-30T21:50:10;103155.19;;;21.33;34.20
76122;BME280;70471;53.200;6.080;2024-01-30T21:55:03;103171.56;;;21.34;34.06
76122;BME280;70471;53.200;6.080;2024-01-30T21:59:55;103179.31;;;21.32;33.49
76122;BME280;70471;53.200;6.080;2024-01-30T22:04:46;103183.66;;;21.28;33.62
76122;BME280;70471;53.200;6.080;2024-01-30T22:09:38;103187.53;;;21.27;33.50
76122;BME280;70471;53.200;6.080;2024-01-30T22:14:30;103188.66;;;21.26;33.68
76122;BME280;70471;53.200;6.080;2024-01-30T22:19:22;103191.91;;;21.23;33.19
76122;BME280;70471;53.200;6.080;2024-01-30T22:24:13;103199.63;;;21.21;33.40
76122;BME280;70471;53.200;6.080;2024-01-30T22:29:05;103171.19;;;21.08;33.40
76122;BME280;70471;53.200;6.080;2024-01-30T22:33:58;103196.78;;;21.16;33.33
76122;BME280;70471;53.200;6.080;2024-01-30T22:38:49;103194.75;;;21.11;32.93
76122;BME280;70471;53.200;6.080;2024-01-30T22:43:41;103184.16;;;21.08;33.16
76122;BME280;70471;53.200;6.080;2024-01-30T22:48:32;103190.19;;;21.05;33.25
76122;BME280;70471;53.200;6.080;2024-01-30T22:53:25;103183.47;;;21.01;33.23
76122;BME280;70471;53.200;6.080;2024-01-30T22:58:16;103200.63;;;20.98;32.88
76122;BME280;70471;53.200;6.080;2024-01-30T23:03:08;103212.19;;;20.95;33.42
76122;BME280;70471;53.200;6.080;2024-01-30T23:07:59;103221.00;;;20.91;33.32
76122;BME280;70471;53.200;6.080;2024-01-30T23:12:52;103235.38;;;20.88;33.41
76122;BME280;70471;53.200;6.080;2024-01-30T23:17:43;103240.56;;;20.85;33.42
76122;BME280;70471;53.200;6.080;2024-01-30T23:22:35;103254.69;;;20.83;33.19
76122;BME280;70471;53.200;6.080;2024-01-30T23:27:27;103249.00;;;20.78;33.16
76122;BME280;70471;53.200;6.080;2024-01-30T23:32:20;103252.91;;;20.77;33.20
76122;BME280;70471;53.200;6.080;2024-01-30T23:37:11;103267.25;;;20.74;33.09
76122;BME280;70471;53.200;6.080;2024-01-30T23:42:03;103270.50;;;20.71;32.71
76122;BME280;70471;53.200;6.080;2024-01-30T23:46:55;103289.56;;;20.67;32.80
76122;BME280;70471;53.200;6.080;2024-01-30T23:51:48;103302.78;;;20.65;32.62
76122;BME280;70471;53.200;6.080;2024-01-30T23:56:40;103298.59;;;20.63;32.62
